DW2416 Weather Reports


time (UTC)temp
F
wind
direction
speed
knots
gust
knots
rain 1hr
in
rain 24hr
in
rain mn
in
humidity
%
barometer
mb
20211026172003 51 199 3.5 7.8 0.00 0.36 0.36 93 1004.4
20211026171004 51 191 3.5 11.3 0.00 0.36 0.36 93 1004.5
20211026170004 51 186 2.6 9.6 0.00 0.36 0.36 93 1004.6
20211026165003 51 183 2.6 7.0 0.00 0.36 0.36 93 1004.9
20211026164004 51 203 2.6 6.1 0.00 0.36 0.36 94 1005.2
20211026163003 51 234 4.3 8.7 0.00 0.36 0.36 94 1004.9
20211026162003 50 239 2.6 8.7 0.00 0.36 0.36 94 1005.1
20211026161004 50 233 2.6 5.2 0.00 0.36 0.36 95 1005.3
20211026160004 50 193 3.5 7.0 0.00 0.36 0.36 94 1005.3
20211026155004 50 212 2.6 5.2 0.00 0.36 0.36 95 1005.3
20211026154003 50 219 1.7 4.3 0.00 0.37 0.36 95 1005.9
20211026153004 50 198 3.5 7.8 0.00 0.37 0.36 95 1005.7
20211026152004 50 216 2.6 6.1 0.00 0.37 0.36 95 1005.9
20211026151004 49 217 3.5 7.8 0.00 0.37 0.36 95 1006.1
20211026150005 49 198 2.6 6.1 0.01 0.38 0.36 95 1006.3
20211026145004 49 194 3.5 5.2 0.02 0.40 0.36 95 1006.5
20211026144004 49 223 1.7 3.5 0.05 0.44 0.36 95 1006.8
20211026143004 49 198 1.7 4.3 0.07 0.47 0.36 95 1006.8
20211026142004 49 218 1.7 4.3 0.07 0.47 0.36 95 1006.7
20211026141004 49 190 0.9 4.3 0.07 0.48 0.36 95 1007.0
20211026140004 49 226 0.9 3.5 0.07 0.50 0.35 94 1007.4
20211026135004 48 213 0.9 4.3 0.06 0.48 0.33 94 1007.2
20211026134004 48 186 2.6 5.2 0.06 0.47 0.31 94 1007.5
20211026133004 48 194 1.7 5.2 0.06 0.46 0.29 94 1007.4
20211026132003 48 216 1.7 4.3 0.07 0.46 0.29 94 1007.5
20211026131003 48 183 1.7 6.1 0.08 0.46 0.29 94 1007.8
20211026130004 48 201 0.9 4.3 0.09 0.45 0.28 94 1007.6
20211026125004 48 232 1.7 5.2 0.09 0.44 0.27 94 1007.7
20211026124004 48 234 1.7 4.3 0.09 0.42 0.25 94 1007.7
20211026123004 48 225 0.9 2.6 0.10 0.40 0.23 94 1007.6
20211026122003 48 176 2.6 6.1 0.11 0.40 0.22 94 1007.9
20211026121003 47 232 1.7 4.3 0.11 0.38 0.20 93 1008.0
20211026120004 48 196 0.9 3.5 0.11 0.38 0.19 93 1007.7
20211026115004 48 167 2.6 7.0 0.10 0.36 0.17 93 1008.0
20211026114003 48 214 1.7 4.3 0.08 0.35 0.15 93 1008.1
20211026113004 48 228 2.6 6.1 0.06 0.34 0.13 93 1007.8
20211026112004 48 217 4.3 9.6 0.05 0.34 0.11 93 1007.8
20211026111004 47 257 2.6 6.1 0.03 0.32 0.09 93 1008.1
20211026110004 47 171 1.7 3.5 0.02 0.32 0.08 92 1007.9
20211026105004 47 195 1.7 4.3 0.02 0.33 0.07 92 1007.7
20211026104003 48 255 2.6 4.3 0.02 0.34 0.07 92 1007.3
20211026103004 48 246 0.0 3.5 0.03 0.36 0.07 91 1007.3
20211026102004 48 243 0.9 2.6 0.02 0.36 0.06 91 1007.4
20211026101004 48 259 1.7 6.1 0.04 0.37 0.06 91 1007.4
20211026100004 49 256 2.6 5.2 0.06 0.38 0.06 89 1007.3
20211026095003 49 334 2.6 5.2 0.05 0.37 0.05 88 1007.5
20211026094004 49 350 4.3 10.4 0.05 0.38 0.05 88 1007.8
20211026093004 49 331 3.5 7.8 0.04 0.38 0.04 90 1008.1
20211026092003 48 222 0.9 4.3 0.04 0.39 0.04 91 1008.4
20211026091003 48 176 1.7 6.1 0.02 0.39 0.02 91 1008.5
20211026090004 48 0 0.0 0.0 0.00 0.38 0.00 91 1008.7
20211026085004 48 164 0.0 0.9 0.00 0.40 0.00 90 1008.9
20211026084004 48 164 0.9 1.7 0.00 0.41 0.00 90 1009.0
20211026083004 48 164 0.0 1.7 0.00 0.43 0.00 90 1009.1
20211026082003 48 164 0.9 3.5 0.00 0.44 0.00 90 1009.2
20211026081003 48 165 1.7 3.5 0.00 0.46 0.00 90 1009.2
20211026080004 48 165 3.5 5.2 0.00 0.46 0.00 90 1009.2
20211026075004 47 159 3.5 7.0 0.00 0.47 0.00 91 1009.3
20211026074004 47 165 4.3 6.1 0.00 0.47 0.00 91 1009.5
20211026073004 47 156 2.6 7.0 0.00 0.48 0.00 91 1009.5
20211026072004 48 135 0.9 2.6 0.00 0.48 0.00 90 1009.5
20211026071004 48 100 1.7 2.6 0.00 0.48 0.00 90 1009.6
20211026070004 48 101 0.0 2.6 0.00 0.48 0.00 90 1009.8
20211026065004 48 101 0.0 0.9 0.00 0.49 0.00 90 1009.7
20211026064004 48 100 1.7 3.5 0.00 0.49 0.00 90 1010.1
20211026063004 48 101 2.6 3.5 0.00 0.49 0.00 89 1010.4
20211026062003 48 66 0.9 3.5 0.00 0.49 0.00 89 1010.5
20211026061004 48 8 1.7 3.5 0.00 0.49 0.00 88 1010.5
20211026060004 48 162 1.7 4.3 0.00 0.49 0.00 87 1010.5
20211026055004 49 90 2.6 5.2 0.00 0.49 0.00 85 1011.2
20211026054005 50 30 3.5 7.0 0.00 0.49 0.00 82 1011.3
20211026053004 50 350 4.3 10.4 0.00 0.49 0.00 82 1011.3
20211026052004 50 345 6.1 11.3 0.00 0.49 0.00 82 1011.0
20211026051003 49 342 6.1 13.9 0.00 0.49 0.00 85 1011.0
20211026050004 48 313 3.5 10.4 0.00 0.49 0.00 89 1010.9
20211026045004 47 167 2.6 4.3 0.00 0.49 0.00 91 1011.1
20211026044003 47 167 1.7 3.5 0.00 0.49 0.00 92 1011.6
20211026043004 47 166 0.0 2.6 0.00 0.49 0.00 92 1011.8
20211026042004 47 142 1.7 4.3 0.00 0.49 0.00 92 1011.8
20211026041005 47 117 1.7 2.6 0.00 0.49 0.00 91 1011.9
20211026040005 47 116 0.9 2.6 0.00 0.49 0.00 91 1012.0
20211026035004 47 112 2.6 5.2 0.00 0.49 0.49 91 1012.3
20211026034004 47 106 3.5 5.2 0.00 0.49 0.49 91 1012.1
20211026033004 47 129 1.7 4.3 0.00 0.49 0.49 90 1011.8
20211026032003 47 0 0.0 0.0 0.00 0.49 0.49 90 1011.7
20211026031004 47 135 0.0 0.9 0.00 0.49 0.49 90 1011.7
20211026030004 47 136 0.9 1.7 0.00 0.49 0.49 89 1011.8
20211026025004 47 136 1.7 2.6 0.00 0.49 0.49 89 1012.0
20211026024003 47 104 1.7 3.5 0.00 0.49 0.49 88 1012.2
20211026023003 47 341 0.9 1.7 0.00 0.49 0.49 88 1012.2
20211026022004 48 341 0.9 1.7 0.00 0.49 0.49 87 1012.1
20211026021004 48 333 0.9 2.6 0.00 0.49 0.49 85 1012.2
20211026020004 48 292 0.9 1.7 0.00 0.49 0.49 85 1012.3
20211026015004 48 290 1.7 2.6 0.00 0.49 0.49 85 1012.4
20211026014003 48 271 2.6 3.5 0.00 0.49 0.49 84 1012.4
20211026013004 48 330 1.7 7.0 0.00 0.49 0.49 82 1012.7
20211026012004 48 348 2.6 7.0 0.00 0.49 0.49 82 1012.7
20211026011004 48 346 3.5 7.8 0.00 0.49 0.49 82 1012.9
20211026010004 48 352 3.5 9.6 0.00 0.49 0.49 82 1013.1
20211026005004 48 352 3.5 7.8 0.00 0.49 0.49 81 1013.1
20211026004004 48 351 4.3 7.8 0.00 0.49 0.49 81 1013.2
20211026003004 48 355 3.5 7.8 0.00 0.49 0.49 82 1013.2
20211026002004 48 1 2.6 7.0 0.00 0.49 0.49 82 1013.4
20211026001004 48 351 3.5 7.0 0.00 0.49 0.49 81 1013.4
20211026000004 48 349 4.3 8.7 0.00 0.49 0.49 81 1013.5
20211025235004 48 358 4.3 7.8 0.00 0.49 0.49 81 1013.6
20211025234003 48 352 4.3 9.6 0.00 0.49 0.49 81 1013.7
20211025233003 48 338 5.2 9.6 0.00 0.49 0.49 81 1013.2
20211025232004 48 340 4.3 9.6 0.00 0.49 0.49 82 1013.2
20211025231004 48 334 5.2 10.4 0.00 0.49 0.49 81 1013.4
20211025230004 48 335 7.8 13.0 0.00 0.49 0.49 81 1013.5
20211025225003 48 323 5.2 12.2 0.00 0.49 0.49 83 1013.7
20211025224004 47 295 3.5 7.8 0.00 0.49 0.49 85 1013.9
20211025223004 47 292 2.6 8.7 0.00 0.49 0.49 85 1014.1
20211025222004 47 301 3.5 9.6 0.00 0.49 0.49 86 1014.0
20211025221004 47 292 5.2 11.3 0.00 0.49 0.49 87 1013.8
20211025220003 47 285 2.6 7.8 0.00 0.49 0.49 86 1014.0
20211025215004 47 278 2.6 7.8 0.00 0.49 0.49 85 1014.2
20211025214004 47 284 3.5 8.7 0.00 0.49 0.49 85 1014.2
20211025213004 46 259 1.7 5.2 0.00 0.49 0.49 87 1014.1
20211025212004 47 246 6.1 13.9 0.00 0.49 0.49 85 1014.1
20211025211003 48 274 4.3 7.8 0.00 0.49 0.49 83 1014.0
20211025210003 48 321 7.0 14.8 0.00 0.49 0.49 80 1013.6
20211025205004 48 316 7.0 13.0 0.00 0.49 0.49 80 1013.6
20211025204004 48 324 7.0 13.0 0.00 0.49 0.49 80 1013.2
20211025203004 48 330 6.1 12.2 0.00 0.49 0.49 80 1013.4
20211025202004 48 340 5.2 11.3 0.00 0.49 0.49 80 1013.3
20211025201004 48 343 5.2 10.4 0.00 0.49 0.49 80 1013.3
20211025200003 48 327 4.3 10.4 0.00 0.49 0.49 81 1013.5
20211025195004 48 338 7.0 13.9 0.00 0.49 0.49 80 1013.5
20211025194004 47 327 6.1 12.2 0.00 0.49 0.49 81 1013.6
20211025193004 47 325 5.2 9.6 0.00 0.49 0.49 84 1013.5
20211025192003 46 310 4.3 9.6 0.00 0.49 0.49 87 1013.7
20211025191003 46 252 3.5 7.8 0.00 0.49 0.49 90 1014.0
20211025190003 46 237 2.6 5.2 0.00 0.49 0.49 90 1014.3
20211025185003 46 222 2.6 4.3 0.00 0.49 0.49 90 1014.2
20211025184004 46 235 2.6 5.2 0.00 0.49 0.49 89 1014.3
20211025183005 47 240 2.6 7.0 0.00 0.49 0.49 87 1014.4
20211025182003 47 274 3.5 7.0 0.00 0.49 0.49 83 1014.5
20211025181004 47 297 4.3 9.6 0.00 0.49 0.49 83 1014.4
20211025180005 47 315 4.3 13.0 0.00 0.49 0.49 83 1014.5
20211025175004 47 313 4.3 8.7 0.00 0.49 0.49 82 1014.7
20211025174003 47 331 7.0 15.6 0.00 0.49 0.49 81 1014.9
20211025173003 46 338 7.0 13.9 0.00 0.49 0.49 82 1015.0